Tiempo atmosférico en la estación meteorológica de Lugo, Lugo (442 m.)



Fecha
DESCASC
Temp. máxima en grados centígrados (hora)
DESCASC
Temp. mínima en grados centígrados (hora)
DESCASC
Temp. media en grados centígrados
DESCASC
Racha de viento máxima en m/sg (hora)
DESCASC
Velocidad máxima media en intervalos de 10 minutos(hora)
DESCASC
Precipitaciones diarias en mm
DESCASC
Precipitaciones de 00:00 a 06:00 en mm
DESCASC
Precipitaciones de 06:00 a 12:00 en mm
DESCASC
Precipitaciones de 12:00 a 18:00 en mm
DESCASC
Precipitaciones de 18:00 a 24:00 en mm
DESCASC
06-07-2020 21 (15:50) 15.2 (23:30) 18.1 10.83 (17:20) 5.28 (18:00) 0 0 0 0 0
05-07-2020 29.8 (15:10) 14.9 (07:00) 22.3 8.89 (20:00) 4.17 (20:00) 0 0 0 0 0
04-07-2020 30.9 (18:20) 8.3 (07:20) 19.6 7.78 (19:10) 3.61 (19:40) 0 0 0 0 0
03-07-2020 24.8 (17:30) 6.4 (07:30) 15.6 6.94 (19:30) 3.61 (19:50) 0 0 0 0 0
02-07-2020 20 (17:50) 12.1 (00:00) 16.1 8.33 (14:40) 4.17 (17:20) 0 0 0 0 0
01-07-2020 23.1 (17:40) 14.4 (00:00) 18.8 7.78 (12:30) 3.89 (12:50) 0 0 0 0 0
30-06-2020 29.4 (17:20) 13.1 (00:00) 21.3 7.5 (19:40) 3.33 (19:40) 0 0 0 0 0
29-06-2020 26.4 (18:30) 14.2 (00:00) 20.3 7.78 (15:50) 3.89 (19:30) 0 0 0 0 0
28-06-2020 23.3 (16:20) 12.6 (00:00) 17.9 6.67 (14:50) 2.78 (14:50) 0.4 0 0 0.2 0.2
27-06-2020 22.3 (19:10) 15.8 (00:00) 19 7.22 (20:30) 3.61 (17:20) 0 0 0 0 0
26-06-2020 22.9 (16:10) 13 (00:00) 17.9 9.44 (18:50) 3.89 (18:10) 0 0 0 0 0
25-06-2020 25.5 (16:30) 14.8 (00:00) 20.2 6.94 (19:00) 3.33 (18:50) 0 0 0 0 0
24-06-2020 30.6 (15:30) 14.8 (00:00) 22.7 6.94 (17:30) 3.33 (18:30) 0 0 0 0 0
23-06-2020 36.6 (18:30) 13.5 (00:00) 25 7.78 (19:00) 3.33 (19:10) 0 0 0 0 0
22-06-2020 31.9 (16:40) 11.1 (00:00) 21.5 6.67 (18:10) 3.61 (18:20) 0 0 0 0 0
21-06-2020 25.8 (18:40) 13.8 (00:00) 19.8 5.28 (20:30) 2.78 (22:30) 0 0 0 0 0
20-06-2020 25.2 (16:10) 10.9 (00:00) 18.1 9.72 (19:10) 4.17 (19:10) 0 0 0 0 0
19-06-2020 24.3 (19:00) 7.1 (00:00) 15.7 6.39 (18:40) 3.61 (16:40) 0 0 0 0 0
18-06-2020 21.8 (17:20) 6.8 (00:00) 14.3 6.39 (19:30) 2.5 (20:50) 0 0 0 0 0
17-06-2020 16.7 (14:00) 11.4 (00:00) 14.1 4.72 (16:30) 1.94 (19:00) 0.2 0 0 0.2 0
16-06-2020 17.1 (15:20) 11.4 (00:00) 14.3 8.06 (14:20) 3.89 (14:20) 3.8 1.4 2.2 0.2 0
15-06-2020 19.1 (16:40) 10.4 (00:00) 14.8 8.89 (20:00) 4.72 (16:10) 0.6 0 0.6 0 0
14-06-2020 17.3 (13:10) 11 (00:00) 14.1 8.89 (16:30) 4.44 (16:30) 0.2 0 0.2 0 0
13-06-2020 16.7 (18:10) 10.5 (00:00) 13.6 11.11 (14:40) 5.28 (14:40) 1.2 0 1.2 0 0
12-06-2020 17.7 (17:40) 8.4 (00:00) 13.1 9.17 (18:30) 3.89 (00:10) 8.6 3.4 1.2 0.2 3.8
11-06-2020 15.8 (15:00) 9.8 (00:00) 12.8 10.28 (16:40) 4.72 (23:59) 2.6 0 0.8 0.2 1.6

Gráficas

Temp. máximas Temp. mínimas Temp. medias Precipitaciones Rachas de viento máximas Velocidades máximas media en intervalos de 10 minutos

Datos horarios

Fecha y hora oficial Temperatura (ºC) Velocidad del viento (km/h) Dirección del viento Racha (km/h) Dirección de racha Precipitación (mm) Presión (hPa) Tendencia (hPa) Humedad (%)
2020-07-10 23:00:00 15.5 9 Norte 25 Nordeste 0 -- -- 79
2020-07-10 22:00:00 15.9 10 Norte 26 Nordeste 0 -- -- 77
2020-07-10 21:00:00 16.8 13 Nordeste 35 Nordeste 0 -- -- 74
2020-07-10 20:00:00 17.7 15 Nordeste 36 Norte 0 -- -- 71
2020-07-10 19:00:00 19.4 14 Norte 36 Norte 0 -- -- 64
2020-07-10 18:00:00 20 14 Norte 33 Nordeste 0 -- -- 64
2020-07-10 17:00:00 20.7 13 Nordeste 32 Nordeste 0 -- -- 63
2020-07-10 16:00:00 20.7 14 Norte 33 Norte 0 -- -- 64
2020-07-10 15:00:00 21.4 14 Norte 34 Norte 0 -- -- 62
2020-07-10 14:00:00 20.9 14 Nordeste 28 Nordeste 0 -- -- 62
2020-07-10 13:00:00 19.7 13 Nordeste 30 Norte 0 -- -- 67
2020-07-10 12:00:00 18.8 11 Norte 25 Nordeste 0 -- -- 70
2020-07-10 11:00:00 17 9 Nordeste 20 Nordeste 0 -- -- 77
2020-07-10 10:00:00 15.8 8 Nordeste 19 Norte 0 -- -- 84
2020-07-10 09:00:00 15.4 6 Nordeste 21 Norte 0 -- -- 87
2020-07-10 08:00:00 14.6 5 Norte 16 Norte 0 -- -- 91
2020-07-10 07:00:00 14 3 Noroeste 13 Norte 0 -- -- 90
2020-07-10 06:00:00 13.9 5 Noroeste 15 Norte 0 -- -- 89
2020-07-10 05:00:00 13.9 5 Norte 15 Norte 0 -- -- 88
2020-07-10 04:00:00 12.9 4 Noroeste 14 Noroeste 0 -- -- 89
2020-07-10 03:00:00 13.9 4 Norte 21 Nordeste 0 -- -- 85
2020-07-10 02:00:00 14.2 8 Noroeste 23 Noroeste 0 -- -- 82
2020-07-10 01:00:00 15 5 Norte 19 Noroeste 0 -- -- 74
2020-07-10 00:00:00 16.5 7 Norte 27 Norte 0 -- -- 68
2020-07-09 23:00:00 18 9 Norte 26 Norte 0 -- -- 65
2020-07-09 22:00:00 20 10 Norte 24 Nordeste 0 -- -- 55
2020-07-09 21:00:00 22.3 8 Nordeste 24 Norte 0 -- -- 39
2020-07-09 20:00:00 24.5 12 Nordeste 29 Nordeste 0 -- -- 29
2020-07-09 19:00:00 25.6 12 Nordeste 29 Nordeste 0 -- -- 31
2020-07-09 18:00:00 26.8 13 Norte 30 Norte 0 -- -- 26
2020-07-09 17:00:00 27.5 12 Norte 28 Norte 0 -- -- 29
2020-07-09 16:00:00 27.3 12 Norte 32 Norte 0 -- -- 38
2020-07-09 15:00:00 26.4 13 Norte 23 Nordeste 0 -- -- 38
2020-07-09 14:00:00 25.2 10 Norte 26 Norte 0 -- -- 48
2020-07-09 13:00:00 23.5 10 Norte 24 Nordeste 0 -- -- 54
2020-07-09 12:00:00 22.1 9 Norte 25 Noroeste 0 -- -- 58
2020-07-09 11:00:00 20.8 9 Norte 22 Norte 0 -- -- 62
2020-07-09 10:00:00 19.7 7 Norte 18 Norte 0 -- -- 70
2020-07-09 09:00:00 17.1 6 Noroeste 14 Norte 0 -- -- 80
2020-07-09 08:00:00 15.2 6 Norte 19 Norte 0 -- -- 88
2020-07-09 07:00:00 15.1 6 Norte 16 Norte 0 -- -- 89
2020-07-09 06:00:00 16.2 4 Norte 13 Norte 0 -- -- 89
2020-07-09 05:00:00 16.3 4 Norte 14 Nordeste 0 -- -- 89
2020-07-09 04:00:00 16.2 5 Norte 18 Nordeste 0 -- -- 90
2020-07-09 03:00:00 16.3 6 Norte 25 Norte 0 -- -- 90
2020-07-09 02:00:00 16.4 10 Norte 24 Norte 0 -- -- 89
2020-07-09 01:00:00 16.5 8 Norte 25 Nordeste 0 -- -- 91
2020-07-09 00:00:00 16.7 10 Norte 22 Nordeste 0 -- -- 91
2020-07-08 23:00:00 16.8 10 Nordeste 27 Nordeste 0.2 -- -- 90
2020-07-08 22:00:00 17.3 9 Nordeste 30 Nordeste 0.2 -- -- 87
2020-07-08 21:00:00 18.4 10 Norte 28 Noroeste 0 -- -- 83
2020-07-08 20:00:00 18.3 12 Nordeste 33 Noroeste 0 -- -- 82
2020-07-08 19:00:00 19.1 14 Nordeste 35 Nordeste 0 -- -- 80
2020-07-08 18:00:00 19.8 14 Norte 34 Nordeste 0 -- -- 76
2020-07-08 17:00:00 22.1 12 Nordeste 32 Norte 0 -- -- 68
2020-07-08 16:00:00 22.1 14 Norte 32 Nordeste 0 -- -- 67
2020-07-08 15:00:00 21.5 14 Norte 34 Norte 0 -- -- 69
2020-07-08 14:00:00 21.1 12 Nordeste 28 Norte 0 -- -- 69
2020-07-08 13:00:00 19 10 Norte 33 Nordeste 0 -- -- 77
2020-07-08 12:00:00 17.9 14 Nordeste 30 Norte 0 -- -- 81
2020-07-08 11:00:00 17.1 12 Nordeste 29 Nordeste 0 -- -- 85
2020-07-08 10:00:00 16.5 11 Nordeste 27 Nordeste 0 -- -- 88
2020-07-08 09:00:00 15.8 12 Nordeste 27 Nordeste 0 -- -- 91
2020-07-08 08:00:00 15.5 13 Nordeste 25 Norte 0 -- -- 92
2020-07-08 07:00:00 15.6 8 Nordeste 24 Norte 0 -- -- 92
2020-07-08 06:00:00 15.8 7 Norte 22 Nordeste 0 -- -- 91
2020-07-08 05:00:00 15.7 8 Nordeste 24 Nordeste 0 -- -- 91
2020-07-08 04:00:00 15.7 10 Nordeste 25 Nordeste 0 -- -- 91
2020-07-08 03:00:00 15.9 10 Nordeste 26 Nordeste 0 -- -- 89
2020-07-08 02:00:00 16 10 Nordeste 21 Nordeste 0 -- -- 88
2020-07-08 01:00:00 16.1 7 Norte 23 Norte 0 -- -- 87
2020-07-08 00:00:00 15.9 10 Norte 25 Norte 0 -- -- 87
2020-07-07 23:00:00 16.1 10 Norte 24 Noroeste 0 -- -- 85
2020-07-07 22:00:00 17.8 9 Norte 29 Norte 0 -- -- 77
2020-07-07 21:00:00 19.7 14 Norte 31 Norte 0 -- -- 69
2020-07-07 20:00:00 22.9 10 Norte 24 Norte 0 -- -- 59
2020-07-07 19:00:00 24.2 12 Norte 26 Norte 0 -- -- 56
2020-07-07 18:00:00 24.8 11 Norte 26 Norte 0 -- -- 56
2020-07-07 17:00:00 25.5 12 Norte 28 Norte 0 -- -- 54
2020-07-07 16:00:00 25.5 9 Norte 27 Norte 0 -- -- 54
2020-07-07 15:00:00 24.3 11 Norte 26 Norte 0 -- -- 56
2020-07-07 14:00:00 23.2 9 Norte 23 Nordeste 0 -- -- 59
2020-07-07 13:00:00 21.6 10 Norte 22 Nordeste 0 -- -- 62
2020-07-07 12:00:00 20 9 Norte 24 Nordeste 0 -- -- 66
2020-07-07 11:00:00 18.1 13 Nordeste 28 Norte 0 -- -- 71
2020-07-07 10:00:00 17.2 11 Nordeste 32 Nordeste 0 -- -- 74
2020-07-07 09:00:00 15.9 13 Nordeste 28 Nordeste 0 -- -- 80
2020-07-07 08:00:00 14.7 9 Nordeste 25 Nordeste 0 -- -- 86
2020-07-07 07:00:00 14.1 10 Nordeste 24 Nordeste 0 -- -- 88
2020-07-07 06:00:00 14.2 11 Nordeste 24 Este 0 -- -- 88
2020-07-07 05:00:00 14.4 10 Nordeste 21 Nordeste 0 -- -- 88
2020-07-07 04:00:00 14.7 10 Nordeste 26 Nordeste 0 -- -- 87
2020-07-07 03:00:00 14.9 10 Norte 23 Norte 0 -- -- 87
2020-07-07 02:00:00 14.9 10 Nordeste 21 Norte 0 -- -- 87
2020-07-07 01:00:00 15.1 9 Norte 21 Nordeste 0 -- -- 86
2020-07-07 00:00:00 15.2 9 Norte 24 Nordeste 0 -- -- 86
2020-07-06 23:00:00 15.4 10 Norte 26 Norte 0 -- -- 86
2020-07-06 22:00:00 15.9 9 Norte 31 Nordeste 0 -- -- 83
2020-07-06 21:00:00 16.6 11 Norte 31 Nordeste 0 -- -- 81
2020-07-06 20:00:00 17.3 14 Norte 31 Nordeste 0 -- -- 78
2020-07-06 19:00:00 18.8 15 Norte 38 Este 0 -- -- 73
2020-07-06 18:00:00 19.1 19 Nordeste 39 Nordeste 0 -- -- 72
2020-07-06 17:00:00 19.5 17 Nordeste 36 Norte 0 -- -- 71
2020-07-06 16:00:00 20.6 14 Norte 34 Norte 0 -- -- 68
2020-07-06 15:00:00 20.1 15 Nordeste 36 Norte 0 -- -- 68
2020-07-06 14:00:00 19.6 14 Norte 32 Nordeste 0 -- -- 72
2020-07-06 13:00:00 20 15 Norte 31 Nordeste 0 -- -- 70
2020-07-06 12:00:00 18.4 10 Norte 25 Nordeste 0 -- -- 78
2020-07-06 11:00:00 17.6 11 Nordeste 22 Norte 0 -- -- 81
2020-07-06 10:00:00 17.3 10 Nordeste 22 Norte 0 -- -- 82
2020-07-06 09:00:00 17.2 8 Nordeste 18 Norte 0 -- -- 83
2020-07-06 08:00:00 16.7 5 Nordeste 19 Este 0 -- -- 85
2020-07-06 07:00:00 16.5 7 Nordeste 18 Nordeste 0 -- -- 86
2020-07-06 06:00:00 16.5 6 Nordeste 21 Nordeste 0 -- -- 87
2020-07-06 05:00:00 16.5 6 Nordeste 20 Nordeste 0 -- -- 86
2020-07-06 04:00:00 16.3 10 Nordeste 24 Norte 0 -- -- 87
2020-07-06 03:00:00 16.3 10 Norte 23 Norte 0 -- -- 87
2020-07-06 02:00:00 16.4 9 Norte 19 Noroeste 0 -- -- 88
2020-07-06 01:00:00 16.9 10 Norte 21 Norte 0 -- -- 86
2020-07-06 00:00:00 17.2 8 Norte 25 Norte 0 -- -- 86
2020-07-05 23:00:00 17.8 9 Norte 28 Norte 0 -- -- 84
2020-07-05 22:00:00 19.8 8 Norte 22 Nordeste 0 -- -- 75
2020-07-05 21:00:00 22.3 12 Norte 28 Norte 0 -- -- 63
2020-07-05 20:00:00 24.6 15 Nordeste 32 Norte 0 -- -- 54
2020-07-05 19:00:00 27.3 13 Nordeste 27 Nordeste 0 -- -- 47
2020-07-05 18:00:00 27.6 12 Nordeste 30 Nordeste 0 -- -- 47
2020-07-05 17:00:00 28.9 11 Norte 27 Nordeste 0 -- -- 43
2020-07-05 16:00:00 29.2 14 Nordeste 26 Nordeste 0 -- -- 42
2020-07-05 15:00:00 29.3 11 Nordeste 25 Nordeste 0 -- -- 43
2020-07-05 14:00:00 28.8 10 Nordeste 22 Norte 0 -- -- 44
2020-07-05 13:00:00 27.7 7 Nordeste 15 Nordeste 0 -- -- 48
2020-07-05 12:00:00 25.9 4 Norte 11 Norte 0 -- -- 54
2020-07-05 11:00:00 23.5 3 Oeste 8 Nordeste 0 -- -- 62
2020-07-05 10:00:00 20.1 3 Oeste 7 Oeste 0 -- -- 73
2020-07-05 09:00:00 17.5 3 Oeste 8 Noroeste 0 -- -- 86
2020-07-05 08:00:00 14.9 3 Oeste 10 Noroeste 0 -- -- 93
2020-07-05 07:00:00 14.9 3 Noroeste 6 Norte 0 -- -- 93
2020-07-05 06:00:00 15.2 2 Noroeste 6 Noroeste 0 -- -- 93
2020-07-05 05:00:00 15.4 3 Noroeste 9 Oeste 0 -- -- 91
2020-07-05 04:00:00 15.6 3 Noroeste 8 Norte 0 -- -- 90
2020-07-05 03:00:00 16.1 4 Noroeste 11 Noroeste 0 -- -- 89
2020-07-05 02:00:00 16.6 3 Noroeste 11 Norte 0 -- -- 86
2020-07-05 01:00:00 17.2 5 Noroeste 12 Noroeste 0 -- -- 83
2020-07-05 00:00:00 18.5 5 Norte 13 Norte 0 -- -- 77
2020-07-04 23:00:00 19.6 5 Norte 14 Norte 0 -- -- 71
2020-07-04 22:00:00 20.8 7 Norte 21 Norte 0 -- -- 68
2020-07-04 21:00:00 22.9 9 Norte 24 Norte 0 -- -- 66
2020-07-04 20:00:00 25.6 10 Norte 28 Norte 0 -- -- 58
2020-07-04 19:00:00 29.3 9 Norte 22 Norte 0 -- -- 46
2020-07-04 18:00:00 30.3 7 Norte 19 Norte 0 -- -- 36
2020-07-04 17:00:00 29.9 6 Nordeste 17 Nordeste 0 -- -- 36
2020-07-04 16:00:00 29.5 9 Nordeste 19 Nordeste 0 -- -- 33
2020-07-04 15:00:00 28.7 6 Nordeste 14 Nordeste 0 -- -- 34
2020-07-04 14:00:00 25.8 5 Oeste 12 Oeste 0 -- -- 43
2020-07-04 13:00:00 23 4 Oeste 9 Oeste 0 -- -- 51
2020-07-04 12:00:00 20.8 3 Sudeste 9 Sudeste 0 -- -- 55
2020-07-04 11:00:00 16.7 4 Sudeste 10 Sudeste 0 -- -- 71
2020-07-04 10:00:00 13.8 4 Sudeste 9 Sudeste 0 -- -- 85
2020-07-04 09:00:00 11 3 Sudeste 6 Sudeste 0 -- -- 92
2020-07-04 08:00:00 9 2 Sudeste 5 Sudeste 0 -- -- 94
2020-07-04 07:00:00 8.5 0 Calma 4 Noroeste 0 -- -- 94
2020-07-04 06:00:00 8.6 2 Noroeste 6 Noroeste 0 -- -- 93
2020-07-04 05:00:00 9.7 0 Calma 4 Noroeste 0 -- -- 93
2020-07-04 04:00:00 10 0 Calma 9 Noroeste 0 -- -- 92
2020-07-04 03:00:00 10.7 3 Noroeste 10 Noroeste 0 -- -- 91
2020-07-04 02:00:00 11.4 4 Noroeste 11 Oeste 0 -- -- 89
2020-07-04 01:00:00 12.3 4 Noroeste 10 Norte 0 -- -- 86
2020-07-04 00:00:00 13.8 4 Norte 14 Norte 0 -- -- 80
2020-07-03 23:00:00 14.8 6 Nordeste 17 Norte 0 -- -- 76
2020-07-03 22:00:00 16.4 9 Norte 23 Norte 0 -- -- 70
2020-07-03 21:00:00 18.4 11 Nordeste 23 Nordeste 0 -- -- 64
2020-07-03 20:00:00 21.7 12 Nordeste 25 Nordeste 0 -- -- 55
2020-07-03 19:00:00 24 9 Nordeste 23 Nordeste 0 -- -- 45
2020-07-03 18:00:00 24.4 9 Norte 21 Norte 0 -- -- 38
2020-07-03 17:00:00 24.5 7 Noroeste 21 Norte 0 -- -- 40
2020-07-03 16:00:00 24.1 6 Norte 18 Norte 0 -- -- 40
2020-07-03 15:00:00 22.6 6 Norte 17 Nordeste 0 -- -- 42
2020-07-03 14:00:00 21.6 4 Noroeste 16 Este 0 -- -- 46
2020-07-03 13:00:00 19.4 6 Nordeste 19 Norte 0 -- -- 51
2020-07-03 12:00:00 17.6 8 Nordeste 18 Nordeste 0 -- -- 56
2020-07-03 11:00:00 16.4 10 Nordeste 21 Nordeste 0 -- -- 62
2020-07-03 10:00:00 15 5 Norte 12 Noroeste 0 -- -- 73
2020-07-03 09:00:00 10.9 4 Noroeste 8 Oeste 0 -- -- 84
2020-07-03 08:00:00 7.8 2 Noroeste 6 Noroeste 0 -- -- 93
2020-07-03 07:00:00 7.2 3 Noroeste 10 Noroeste 0 -- -- 95
2020-07-03 06:00:00 7.3 2 Noroeste 10 Norte 0 -- -- 94
2020-07-03 05:00:00 8.2 4 Noroeste 9 Noroeste 0 -- -- 94
2020-07-03 04:00:00 8.5 2 Noroeste 10 Oeste 0 -- -- 94
2020-07-03 03:00:00 9.1 4 Noroeste 10 Noroeste 0 -- -- 91
2020-07-03 02:00:00 10.2 3 Noroeste 9 Norte 0 -- -- 88
2020-07-03 01:00:00 11.4 4 Norte 14 Norte 0 -- -- 83
2020-07-03 00:00:00 12.3 5 Norte 14 Nordeste 0 -- -- 79
2020-07-02 23:00:00 13 5 Nordeste 18 Nordeste 0 -- -- 74
2020-07-02 22:00:00 14 8 Nordeste 22 Norte 0 -- -- 70
2020-07-02 21:00:00 15.6 8 Norte 24 Nordeste 0 -- -- 65
2020-07-02 20:00:00 17.9 12 Norte 23 Nordeste 0 -- -- 59
2020-07-02 19:00:00 18.5 12 Norte 29 Nordeste 0 -- -- 58
2020-07-02 18:00:00 19.3 13 Norte 29 Norte 0 -- -- 50
2020-07-02 17:00:00 18.7 9 Norte 27 Norte 0 -- -- 60
2020-07-02 16:00:00 18.2 9 Noroeste 25 Noroeste 0 -- -- 60
2020-07-02 15:00:00 17.4 8 Noroeste 30 Noroeste 0 -- -- 63
2020-07-02 14:00:00 18.9 6 Nordeste 14 Este 0 -- -- 57
2020-07-02 13:00:00 14.5 9 Nordeste 21 Noroeste 0 -- -- 76
2020-07-02 12:00:00 15.6 7 Noroeste 18 Noroeste 0 -- -- 76
2020-07-02 11:00:00 14.5 7 Noroeste 22 Noroeste 0 -- -- 78
2020-07-02 10:00:00 14.2 4 Noroeste 10 Noroeste 0 -- -- 78
2020-07-02 09:00:00 12.8 2 Noroeste 6 Noroeste 0 -- -- 82
2020-07-02 08:00:00 12.1 2 Oeste 5 Oeste 0 -- -- 85
2020-07-02 07:00:00 12.5 2 Noroeste 7 Noroeste 0 -- -- 85
2020-07-02 06:00:00 13 0 Calma 9 Noroeste 0 -- -- 81
2020-07-02 05:00:00 13.3 0 Calma 7 Oeste 0 -- -- 82
2020-07-02 04:00:00 13.4 4 Noroeste 9 Noroeste 0 -- -- 81
2020-07-02 03:00:00 13.7 4 Noroeste 9 Oeste 0 -- -- 80
2020-07-02 02:00:00 13.9 5 Noroeste 12 Noroeste 0 -- -- 80
2020-07-02 01:00:00 14.2 3 Noroeste 11 Noroeste 0 -- -- 79
2020-07-02 00:00:00 14.5 4 Norte 14 Norte 0 -- -- 79
2020-07-01 23:00:00 14.5 4 Noroeste 18 Noroeste 0 -- -- 80
2020-07-01 22:00:00 15.6 7 Noroeste 18 Noroeste 0 -- -- 78
2020-07-01 21:00:00 17.9 7 Norte 22 Noroeste 0 -- -- 73
2020-07-01 20:00:00 20.7 8 Noroeste 15 Noroeste 0 -- -- 66
2020-07-01 19:00:00 22.1 7 Noroeste 20 Noroeste 0 -- -- 60
2020-07-01 18:00:00 21.9 8 Noroeste 21 Noroeste 0 -- -- 61
2020-07-01 17:00:00 22.3 8 Oeste 23 Oeste 0 -- -- 59
2020-07-01 16:00:00 20.8 10 Oeste 23 Oeste 0 -- -- 64
2020-07-01 15:00:00 22 12 Oeste 26 Oeste 0 -- -- 57
2020-07-01 14:00:00 21.7 9 Oeste 25 Oeste 0 -- -- 60
2020-07-01 13:00:00 21 10 Sudoeste 28 Oeste 0 -- -- 64
2020-07-01 12:00:00 19 9 Oeste 19 Oeste 0 -- -- 77
2020-07-01 11:00:00 18.9 7 Oeste 17 Oeste 0 -- -- 78
2020-07-01 10:00:00 18.1 6 Oeste 13 Oeste 0 -- -- 78
2020-07-01 09:00:00 17.3 2 Sur 6 Sudeste 0 -- -- 84
2020-07-01 08:00:00 16.5 0 Calma 10 Oeste 0 -- -- 85
2020-07-01 07:00:00 15.8 0 Calma 11 Oeste 0 -- -- 89
2020-07-01 06:00:00 15.7 5 Oeste 16 Oeste 0 -- -- 90
2020-07-01 05:00:00 16.3 6 Oeste 12 Noroeste 0 -- -- 89
2020-07-01 04:00:00 17.1 4 Noroeste 10 Oeste 0 -- -- 87
2020-07-01 03:00:00 17.1 3 Noroeste 7 Noroeste 0 -- -- 86
2020-07-01 02:00:00 17.9 4 Noroeste 10 Noroeste 0 -- -- 83
2020-07-01 01:00:00 19.5 4 Norte 14 Norte 0 -- -- 73
2020-07-01 00:00:00 20 5 Norte 17 Nordeste 0 -- -- 70
2020-06-30 23:00:00 20.3 5 Norte 18 Norte 0 -- -- 70
2020-06-30 22:00:00 21.5 6 Norte 18 Nordeste 0 -- -- 67
2020-06-30 21:00:00 22.6 9 Norte 23 Nordeste 0 -- -- 64
2020-06-30 20:00:00 24.7 10 Norte 27 Norte 0 -- -- 58
2020-06-30 19:00:00 28.4 10 Nordeste 26 Norte 0 -- -- 50
2020-06-30 18:00:00 28.9 9 Norte 20 Nordeste 0 -- -- 49
2020-06-30 17:00:00 28.9 7 Norte 22 Norte 0 -- -- 48
2020-06-30 16:00:00 28.8 9 Norte 19 Norte 0 -- -- 47
2020-06-30 15:00:00 28.1 9 Norte 20 Norte 0 -- -- 50
2020-06-30 14:00:00 26.8 7 Norte 18 Norte 0 -- -- 51
2020-06-30 13:00:00 25.6 6 Norte 21 Este 0 -- -- 55
2020-06-30 12:00:00 24.1 8 Norte 18 Norte 0 -- -- 59
2020-06-30 11:00:00 22 9 Norte 20 Norte 0 -- -- 62
2020-06-30 10:00:00 20.8 4 Noroeste 8 Norte 0 -- -- 68
2020-06-30 09:00:00 17.3 3 Oeste 7 Noroeste 0 -- -- 80
2020-06-30 08:00:00 14.5 3 Noroeste 5 Norte 0 -- -- 87
2020-06-30 07:00:00 13.2 2 Noroeste 5 Noroeste 0 -- -- 89
2020-06-30 06:00:00 13.4 3 Noroeste 9 Norte 0 -- -- 86
2020-06-30 05:00:00 13.6 3 Noroeste 9 Norte 0 -- -- 84
2020-06-30 04:00:00 14.2 4 Noroeste 10 Norte 0 -- -- 79
2020-06-30 03:00:00 14.9 4 Noroeste 14 Norte 0 -- -- 70
2020-06-30 02:00:00 15.8 4 Norte 17 Norte 0 -- -- 68
2020-06-30 01:00:00 16.6 4 Noroeste 19 Norte 0 -- -- 60
2020-06-30 00:00:00 17.5 7 Norte 15 Nordeste 0 -- -- 62
2020-06-29 23:00:00 18.2 5 Norte 15 Norte 0 -- -- 70
2020-06-29 22:00:00 19.7 8 Nordeste 23 Norte 0 -- -- 64
2020-06-29 21:00:00 21.4 13 Nordeste 26 Norte 0 -- -- 43
2020-06-29 20:00:00 24.1 12 Nordeste 28 Nordeste 0 -- -- 40
2020-06-29 19:00:00 26 10 Nordeste 24 Nordeste 0 -- -- 43
2020-06-29 18:00:00 26.2 8 Nordeste 22 Norte 0 -- -- 35
2020-06-29 17:00:00 25.2 9 Nordeste 21 Nordeste 0 -- -- 31
2020-06-29 16:00:00 24 10 Nordeste 28 Nordeste 0 -- -- 38
2020-06-29 15:00:00 22.5 9 Norte 21 Este 0 -- -- 51
2020-06-29 14:00:00 21.3 8 Norte 17 Nordeste 0 -- -- 59
2020-06-29 13:00:00 18.6 7 Norte 17 Nordeste 0 -- -- 73
2020-06-29 12:00:00 17.7 5 Nordeste 14 Nordeste 0 -- -- 75
2020-06-29 11:00:00 17 6 Nordeste 15 Norte 0 -- -- 77
2020-06-29 10:00:00 16.4 5 Nordeste 14 Nordeste 0 -- -- 82
2020-06-29 09:00:00 15.4 6 Norte 12 Norte 0 -- -- 86
2020-06-29 08:00:00 14.7 3 Norte 8 Norte 0 -- -- 92
2020-06-29 07:00:00 14.3 0 Calma 8 Noroeste 0 -- -- 92
2020-06-29 06:00:00 14.3 3 Noroeste 9 Noroeste 0 -- -- 92
2020-06-29 05:00:00 14.8 3 Noroeste 15 Noroeste 0 -- -- 90
2020-06-29 04:00:00 14.9 4 Noroeste 10 Noroeste 0 -- -- 91
2020-06-29 03:00:00 15.3 4 Noroeste 16 Norte 0 -- -- 90
2020-06-29 02:00:00 15.7 7 Noroeste 15 Noroeste 0 -- -- 90
2020-06-29 01:00:00 16.4 5 Norte 12 Noroeste 0 -- -- 92
2020-06-29 00:00:00 16.6 4 Noroeste 12 Noroeste 0 -- -- 92
2020-06-28 23:00:00 16.9 3 Noroeste 10 Noroeste 0 -- -- 93
2020-06-28 22:00:00 17.2 2 Noroeste 8 Oeste 0 -- -- 93
2020-06-28 21:00:00 17.3 4 Norte 18 Norte 0.2 -- -- 91
2020-06-28 20:00:00 18.7 5 Noroeste 17 Noroeste 0 -- -- 85
2020-06-28 19:00:00 21 6 Norte 21 Oeste 0 -- -- 75
2020-06-28 18:00:00 22.1 6 Oeste 24 Sudoeste 0 -- -- 68
2020-06-28 17:00:00 22.4 9 Oeste 22 Oeste 0 -- -- 66
2020-06-28 16:00:00 22.6 9 Oeste 22 Oeste 0 -- -- 66
2020-06-28 15:00:00 22.5 9 Oeste 24 Sudoeste 0 -- -- 69
2020-06-28 14:00:00 21 0 Calma 10 Oeste 0 -- -- 77
2020-06-28 13:00:00 18.4 4 Sudeste 10 Sudeste 0.2 -- -- 89
2020-06-28 12:00:00 17.3 5 Sur 15 Sur 0 -- -- 90
2020-06-28 11:00:00 16.1 6 Sudeste 15 Sudeste 0 -- -- 91
2020-06-28 10:00:00 15.4 5 Sudeste 12 Sudeste 0 -- -- 90
2020-06-28 09:00:00 14.3 4 Sudeste 9 Sudeste 0 -- -- 91
2020-06-28 08:00:00 13.2 6 Sudeste 9 Sudeste 0 -- -- 93
2020-06-28 07:00:00 12.8 4 Sudeste 12 Este 0 -- -- 94
2020-06-28 06:00:00 12.7 0 Calma 8 Sudeste 0 -- -- 93
2020-06-28 05:00:00 13.1 3 Sudeste 9 Sudeste 0 -- -- 92
2020-06-28 04:00:00 13.6 4 Sudeste 9 Este 0 -- -- 91
2020-06-28 03:00:00 14.1 3 Sudeste 10 Oeste 0 -- -- 89
2020-06-28 02:00:00 14.7 4 Oeste 9 Oeste 0 -- -- 88
2020-06-28 01:00:00 15.1 4 Sudoeste 20 Oeste 0 -- -- 87
2020-06-28 00:00:00 15.8 6 Oeste 16 Oeste 0 -- -- 87
2020-06-27 23:00:00 16.7 5 Oeste 17 Oeste 0 -- -- 84
2020-06-27 22:00:00 17.8 6 Oeste 21 Oeste 0 -- -- 78
2020-06-27 21:00:00 19.1 10 Oeste 26 Oeste 0 -- -- 73
2020-06-27 20:00:00 21.1 12 Oeste 25 Oeste 0 -- -- 69
2020-06-27 19:00:00 21.7 10 Oeste 24 Oeste 0 -- -- 70
2020-06-27 18:00:00 20.2 11 Oeste 23 Sudoeste 0 -- -- 78
2020-06-27 17:00:00 19.9 9 Oeste 20 Oeste 0 -- -- 79
2020-06-27 16:00:00 18.8 7 Oeste 18 Oeste 0 -- -- 85
2020-06-27 15:00:00 18.5 9 Oeste 24 Oeste 0 -- -- 89
2020-06-27 14:00:00 19.1 11 Oeste 24 Oeste 0 -- -- 82
2020-06-27 13:00:00 18.8 3 Sudoeste 11 Sur 0 -- -- 84
2020-06-27 12:00:00 18.7 5 Sudoeste 21 Oeste 0 -- -- 80
2020-06-27 11:00:00 18.2 3 Sudoeste 11 Oeste 0 -- -- 80
2020-06-27 10:00:00 17.6 2 Sudoeste 14 Sur 0 -- -- 81
2020-06-27 09:00:00 17 4 Sur 13 Sudeste 0 -- -- 84
2020-06-27 08:00:00 16.3 3 Sur 10 Sur 0 -- -- 87
2020-06-27 07:00:00 16.1 2 Sur 15 Sudoeste 0 -- -- 88
2020-06-27 06:00:00 16.3 2 Sudoeste 10 Noroeste 0 -- -- 87
2020-06-27 05:00:00 16.3 0 Calma 10 Sur 0 -- -- 87
2020-06-27 04:00:00 16.3 2 Sudoeste 13 Sur 0 -- -- 87
2020-06-27 03:00:00 16.6 0 Calma 8 Sur 0 -- -- 85
2020-06-27 02:00:00 16.7 3 Sudoeste 14 Sudeste 0 -- -- 84
2020-06-27 01:00:00 17 2 Sudoeste 7 Sudeste 0 -- -- 82
2020-06-27 00:00:00 17.2 2 Sudoeste 14 Sur 0 -- -- 82
2020-06-26 23:00:00 17.2 3 Sudoeste 21 Oeste 0 -- -- 84
2020-06-26 22:00:00 18.5 7 Oeste 22 Oeste 0 -- -- 75
2020-06-26 21:00:00 18.6 8 Sudoeste 23 Oeste 0 -- -- 76
2020-06-26 20:00:00 19.5 8 Oeste 27 Oeste 0 -- -- 72
2020-06-26 19:00:00 20.1 12 Oeste 34 Oeste 0 -- -- 69
2020-06-26 18:00:00 21.5 13 Oeste 29 Oeste 0 -- -- 60
2020-06-26 17:00:00 21.3 6 Sudoeste 23 Oeste 0 -- -- 61
2020-06-26 16:00:00 22.6 5 Sudoeste 24 Oeste 0 -- -- 55
2020-06-26 15:00:00 21.8 10 Oeste 24 Sudoeste 0 -- -- 55
2020-06-26 14:00:00 22 4 Sudoeste 16 Sudeste 0 -- -- 52
2020-06-26 13:00:00 20.9 5 Sudoeste 19 Noroeste 0 -- -- 57
2020-06-26 12:00:00 16.9 5 Oeste 10 Oeste 0 -- -- 74
2020-06-26 11:00:00 15.8 0 Calma 10 Sudeste 0 -- -- 80
2020-06-26 10:00:00 14.9 3 Oeste 13 Oeste 0 -- -- 81
2020-06-26 09:00:00 13.4 0 Calma 13 Oeste 0 -- -- 87
2020-06-26 08:00:00 13.1 5 Oeste 11 Oeste 0 -- -- 85
2020-06-26 07:00:00 13.2 5 Oeste 11 Oeste 0 -- -- 86
2020-06-26 06:00:00 13.4 3 Oeste 10 Oeste 0 -- -- 87
2020-06-26 05:00:00 13.7 5 Oeste 12 Noroeste 0 -- -- 86
2020-06-26 04:00:00 14.1 5 Oeste 12 Noroeste 0 -- -- 86
2020-06-26 03:00:00 14.6 5 Oeste 10 Oeste 0 -- -- 84
2020-06-26 02:00:00 15 5 Noroeste 12 Noroeste 0 -- -- 83
2020-06-26 01:00:00 15.5 5 Noroeste 11 Oeste 0 -- -- 82
2020-06-26 00:00:00 15.9 3 Noroeste 13 Noroeste 0 -- -- 81
2020-06-25 23:00:00 16.3 4 Noroeste 17 Norte 0 -- -- 81
2020-06-25 22:00:00 17 6 Norte 19 Norte 0 -- -- 80
2020-06-25 21:00:00 17.7 9 Norte 24 Norte 0 -- -- 78
2020-06-25 20:00:00 19.6 11 Norte 22 Norte 0 -- -- 73
2020-06-25 19:00:00 22.3 9 Norte 25 Norte 0 -- -- 68
2020-06-25 18:00:00 22.4 8 Noroeste 20 Noroeste 0 -- -- 64
2020-06-25 17:00:00 24.2 8 Noroeste 17 Noroeste 0 -- -- 58
2020-06-25 16:00:00 25.3 7 Noroeste 18 Noroeste 0 -- -- 56
2020-06-25 15:00:00 23.6 7 Noroeste 20 Noroeste 0 -- -- 62
2020-06-25 14:00:00 23.5 7 Noroeste 19 Noroeste 0 -- -- 59
2020-06-25 13:00:00 21.6 6 Norte 21 Noroeste 0 -- -- 63
2020-06-25 12:00:00 19.5 3 Norte 11 Norte 0 -- -- 70
2020-06-25 11:00:00 17.3 5 Nordeste 12 Norte 0 -- -- 77
2020-06-25 10:00:00 16.5 3 Noroeste 10 Norte 0 -- -- 84
2020-06-25 09:00:00 15.1 4 Nordeste 12 Norte 0 -- -- 87
2020-06-25 08:00:00 14.9 5 Norte 12 Noroeste 0 -- -- 88
2020-06-25 07:00:00 14.9 4 Norte 13 Norte 0 -- -- 89
2020-06-25 06:00:00 15.1 3 Noroeste 12 Norte 0 -- -- 89
2020-06-25 05:00:00 15.3 4 Noroeste 12 Noroeste 0 -- -- 90
2020-06-25 04:00:00 15.6 6 Norte 15 Norte 0 -- -- 89
2020-06-25 03:00:00 16 2 Noroeste 14 Noroeste 0 -- -- 91
2020-06-25 02:00:00 16.2 6 Noroeste 17 Noroeste 0 -- -- 91
2020-06-25 01:00:00 16.8 7 Noroeste 15 Noroeste 0 -- -- 89
2020-06-25 00:00:00 18.4 6 Noroeste 17 Noroeste 0 -- -- 85
2020-06-24 23:00:00 20.9 6 Norte 16 Norte 0 -- -- 69
2020-06-24 22:00:00 23.1 4 Este 20 Sudeste 0 -- -- 57
2020-06-24 21:00:00 25 7 Este 21 Sudeste 0 -- -- 58
2020-06-24 20:00:00 26.7 8 Norte 21 Nordeste 0 -- -- 57
2020-06-24 19:00:00 28.4 10 Norte 23 Norte 0 -- -- 56
2020-06-24 18:00:00 30.4 8 Noroeste 25 Noroeste 0 -- -- 42
2020-06-24 17:00:00 30 9 Noroeste 23 Oeste 0 -- -- 49
2020-06-24 16:00:00 30.1 10 Noroeste 22 Noroeste 0 -- -- 50
2020-06-24 15:00:00 29.8 9 Norte 17 Norte 0 -- -- 49
2020-06-24 14:00:00 28.5 6 Noroeste 16 Norte 0 -- -- 51
2020-06-24 13:00:00 26.6 6 Norte 13 Norte 0 -- -- 55
2020-06-24 12:00:00 23.6 6 Oeste 12 Noroeste 0 -- -- 69
2020-06-24 11:00:00 20.8 4 Noroeste 9 Oeste 0 -- -- 77
2020-06-24 10:00:00 18.1 0 Calma 8 Sudoeste 0 -- -- 85
2020-06-24 09:00:00 16.3 4 Noroeste 9 Oeste 0 -- -- 90
2020-06-24 08:00:00 15.3 2 Norte 6 Noroeste 0 -- -- 94
2020-06-24 07:00:00 15.1 3 Noroeste 6 Oeste 0 -- -- 93
2020-06-24 06:00:00 15.8 2 Noroeste 6 Noroeste 0 -- -- 93
2020-06-24 05:00:00 16.4 3 Noroeste 6 Noroeste 0 -- -- 91
2020-06-24 04:00:00 17.3 4 Noroeste 7 Noroeste 0 -- -- 89
2020-06-24 03:00:00 18.4 3 Noroeste 7 Noroeste 0 -- -- 88
2020-06-24 02:00:00 19.6 4 Noroeste 7 Noroeste 0 -- -- 84
2020-06-24 01:00:00 20.9 3 Noroeste 9 Oeste 0 -- -- 81
2020-06-24 00:00:00 22.6 4 Noroeste 9 Noroeste 0 -- -- 75
2020-06-23 23:00:00 25.3 4 Noroeste 11 Noroeste 0 -- -- 62
2020-06-23 22:00:00 27.1 5 Noroeste 16 Noroeste 0 -- -- 55
2020-06-23 21:00:00 29.1 6 Noroeste 22 Noroeste 0 -- -- 50
2020-06-23 20:00:00 32.1 9 Noroeste 26 Norte 0 -- -- 47
2020-06-23 19:00:00 35.1 9 Noroeste 28 Noroeste 0 -- -- 39
2020-06-23 18:00:00 35.6 8 Oeste 21 Oeste 0 -- -- 25
2020-06-23 17:00:00 35.1 9 Sudoeste 19 Oeste 0 -- -- 25
2020-06-23 16:00:00 35.1 5 Oeste 13 Sudeste 0 -- -- 28
2020-06-23 15:00:00 35.1 3 Sudoeste 9 Noroeste 0 -- -- 26
2020-06-23 14:00:00 32.6 3 Sudoeste 8 Sudeste 0 -- -- 36
2020-06-23 13:00:00 30.3 4 Este 7 Sudeste 0 -- -- 39
2020-06-23 12:00:00 27.1 3 Sudoeste 7 Este 0 -- -- 50
2020-06-23 11:00:00 24.1 3 Este 7 Sudeste 0 -- -- 66
2020-06-23 10:00:00 20.2 3 Sudeste 8 Este 0 -- -- 79
2020-06-23 09:00:00 15.2 3 Sudeste 6 Este 0 -- -- 94
2020-06-23 08:00:00 13.7 2 Sudeste 8 Sudeste 0 -- -- 95
2020-06-23 07:00:00 13.6 4 Sudeste 8 Este 0 -- -- 94
2020-06-23 06:00:00 13.6 0 Calma 3 Sudeste 0 -- -- 93
2020-06-23 05:00:00 14.3 0 Calma 5 Noroeste 0 -- -- 93
2020-06-23 04:00:00 14.8 2 Noroeste 5 Noroeste 0 -- -- 92
2020-06-23 03:00:00 15.9 0 Calma 8 Noroeste 0 -- -- 90
2020-06-23 02:00:00 16.4 4 Noroeste 13 Noroeste 0 -- -- 89
2020-06-23 01:00:00 17.3 4 Noroeste 14 Noroeste 0 -- -- 87
2020-06-23 00:00:00 18.5 5 Noroeste 13 Noroeste 0 -- -- 84
2020-06-22 23:00:00 20.2 5 Noroeste 14 Noroeste 0 -- -- 79
2020-06-22 22:00:00 22.2 5 Norte 20 Norte 0 -- -- 72
2020-06-22 21:00:00 24.4 8 Norte 19 Norte 0 -- -- 64
2020-06-22 20:00:00 28 9 Norte 21 Nordeste 0 -- -- 52
2020-06-22 19:00:00 29.5 9 Norte 24 Nordeste 0 -- -- 45
2020-06-22 18:00:00 30.5 11 Nordeste 22 Nordeste 0 -- -- 44
2020-06-22 17:00:00 31.7 7 Nordeste 18 Nordeste 0 -- -- 37
2020-06-22 16:00:00 31.1 6 Nordeste 18 Norte 0 -- -- 36
2020-06-22 15:00:00 29.8 4 Noroeste 11 Nordeste 0 -- -- 44
2020-06-22 14:00:00 27.8 5 Noroeste 14 Oeste 0 -- -- 52
2020-06-22 13:00:00 24.6 5 Oeste 12 Noroeste 0 -- -- 58
2020-06-22 12:00:00 20.6 4 Oeste 8 Oeste 0 -- -- 72
2020-06-22 11:00:00 16.4 4 Oeste 7 Noroeste 0 -- -- 86
2020-06-22 10:00:00 13.3 3 Oeste 6 Noroeste 0 -- -- 95
2020-06-22 09:00:00 12.6 0 Calma 4 Oeste 0 -- -- 96
2020-06-22 08:00:00 12 0 Calma 3 Norte 0 -- -- 96
2020-06-22 07:00:00 11.5 0 Calma 3 Noroeste 0 -- -- 96
2020-06-22 06:00:00 11.1 2 Noroeste 4 Noroeste 0 -- -- 95
2020-06-22 05:00:00 11.5 0 Calma 5 Noroeste 0 -- -- 95
2020-06-22 04:00:00 12.1 3 Noroeste 8 Noroeste 0 -- -- 94
2020-06-22 03:00:00 12.8 2 Noroeste 8 Noroeste 0 -- -- 93
2020-06-22 02:00:00 13.4 4 Noroeste 11 Noroeste 0 -- -- 92
2020-06-22 01:00:00 14.2 4 Noroeste 11 Noroeste 0 -- -- 91
2020-06-22 00:00:00 15.5 4 Noroeste 12 Nordeste 0 -- -- 88
2020-06-21 23:00:00 16.9 6 Nordeste 18 Norte 0 -- -- 84
2020-06-21 22:00:00 19.6 6 Norte 19 Norte 0 -- -- 74
2020-06-21 21:00:00 21.2 7 Norte 19 Norte 0 -- -- 69
2020-06-21 20:00:00 22.7 9 Norte 16 Norte 0 -- -- 60
2020-06-21 19:00:00 25.7 5 Noroeste 15 Noroeste 0 -- -- 50
2020-06-21 18:00:00 25.1 8 Oeste 18 Oeste 0 -- -- 54
2020-06-21 17:00:00 23.7 5 Noroeste 15 Oeste 0 -- -- 59
2020-06-21 16:00:00 22.3 4 Noroeste 16 Noroeste 0 -- -- 66
2020-06-21 15:00:00 21.2 2 Noroeste 10 Oeste 0 -- -- 68
2020-06-21 14:00:00 20.5 0 Calma 13 Sudeste 0 -- -- 68
2020-06-21 13:00:00 19.6 3 Sur 10 Sur 0 -- -- 70
2020-06-21 12:00:00 18.5 4 Sur 12 Sur 0 -- -- 71
2020-06-21 11:00:00 17.7 3 Sur 14 Sudoeste 0 -- -- 75
2020-06-21 10:00:00 17 3 Sur 14 Sudeste 0 -- -- 77
2020-06-21 09:00:00 15.3 4 Sudeste 11 Sudeste 0 -- -- 80
2020-06-21 08:00:00 14.3 3 Sur 13 Sudeste 0 -- -- 82
2020-06-21 07:00:00 13.8 6 Sudeste 16 Sudeste 0 -- -- 83
2020-06-21 06:00:00 14.3 4 Sudeste 14 Sudeste 0 -- -- 83
2020-06-21 05:00:00 15.3 0 Calma 6 Sur 0 -- -- 80
2020-06-21 04:00:00 14.9 2 Sur 12 Sudeste 0 -- -- 81
2020-06-21 03:00:00 15.7 2 Sur 10 Sudeste 0 -- -- 79
2020-06-21 02:00:00 15.5 2 Sur 9 Sudeste 0 -- -- 79
2020-06-21 01:00:00 14.9 0 Calma 15 Oeste 0 -- -- 80
2020-06-21 00:00:00 15.5 4 Oeste 17 Noroeste 0 -- -- 76
2020-06-20 23:00:00 16.8 8 Oeste 19 Sudoeste 0 -- -- 62
2020-06-20 22:00:00 17.9 8 Oeste 21 Oeste 0 -- -- 58
2020-06-20 21:00:00 19.6 9 Oeste 25 Oeste 0 -- -- 54
2020-06-20 20:00:00 22.4 10 Oeste 35 Oeste 0 -- -- 45
2020-06-20 19:00:00 23.5 14 Oeste 28 Noroeste 0 -- -- 53
2020-06-20 18:00:00 24.7 11 Oeste 28 Oeste 0 -- -- 51
2020-06-20 17:00:00 24.8 11 Oeste 27 Oeste 0 -- -- 50
2020-06-20 16:00:00 24.5 8 Oeste 22 Sudoeste 0 -- -- 43
2020-06-20 15:00:00 24 10 Oeste 24 Oeste 0 -- -- 45
2020-06-20 14:00:00 23.1 7 Oeste 19 Oeste 0 -- -- 50
2020-06-20 13:00:00 21.7 9 Oeste 21 Sudoeste 0 -- -- 52
2020-06-20 12:00:00 21.3 4 Sur 16 Oeste 0 -- -- 58
2020-06-20 11:00:00 18.3 8 Oeste 21 Oeste 0 -- -- 63
2020-06-20 10:00:00 18.2 3 Sudoeste 9 Sur 0 -- -- 69
2020-06-20 09:00:00 13.6 2 Sur 6 Sudeste 0 -- -- 88
2020-06-20 08:00:00 12 0 Calma 6 Sudeste 0 -- -- 92
2020-06-20 07:00:00 11.3 0 Calma 3 Sudeste 0 -- -- 93
2020-06-20 06:00:00 11.2 0 Calma 5 Sudeste 0 -- -- 92
2020-06-20 05:00:00 11.3 0 Calma -- -- 0 -- -- 90
2020-06-20 04:00:00 11.9 0 Calma 2 Sudeste 0 -- -- 89
2020-06-20 03:00:00 12.5 0 Calma 4 Noroeste 0 -- -- 88
2020-06-20 02:00:00 13.3 0 Calma 4 Noroeste 0 -- -- 85
2020-06-20 01:00:00 13.8 0 Calma 5 Noroeste 0 -- -- 83
2020-06-20 00:00:00 15.1 3 Oeste 11 Norte 0 -- -- 78
2020-06-19 23:00:00 16.7 5 Noroeste 16 Noroeste 0 -- -- 74
2020-06-19 22:00:00 18.5 6 Oeste 18 Oeste 0 -- -- 66
2020-06-19 21:00:00 20.4 8 Oeste 19 Noroeste 0 -- -- 59
2020-06-19 20:00:00 23.2 7 Noroeste 23 Noroeste 0 -- -- 49
2020-06-19 19:00:00 24.3 8 Oeste 23 Oeste 0 -- -- 44
2020-06-19 18:00:00 23.9 9 Oeste 22 Oeste 0 -- -- 36
2020-06-19 17:00:00 24.2 8 Oeste 23 Oeste 0 -- -- 38
2020-06-19 16:00:00 23.1 7 Oeste 19 Oeste 0 -- -- 40
2020-06-19 15:00:00 22.9 5 Oeste 15 Oeste 0 -- -- 42
2020-06-19 14:00:00 20.2 6 Oeste 14 Oeste 0 -- -- 50
2020-06-19 13:00:00 19.2 4 Norte 13 Oeste 0 -- -- 54
2020-06-19 12:00:00 17.7 3 Norte 9 Noroeste 0 -- -- 56
2020-06-19 11:00:00 16.5 3 Oeste 8 Sudoeste 0 -- -- 63
2020-06-19 10:00:00 15.3 3 Este 6 Sudeste 0 -- -- 68
2020-06-19 09:00:00 12.3 0 Calma 7 Noroeste 0 -- -- 81
2020-06-19 08:00:00 8.2 2 Noroeste 7 Noroeste 0 -- -- 91
2020-06-19 07:00:00 7.4 3 Noroeste 5 Noroeste 0 -- -- 94
2020-06-19 06:00:00 7.8 2 Noroeste 5 Oeste 0 -- -- 92
2020-06-19 05:00:00 8.2 3 Noroeste 6 Noroeste 0 -- -- 92
2020-06-19 04:00:00 8.8 2 Noroeste 6 Noroeste 0 -- -- 91
2020-06-19 03:00:00 9.4 3 Noroeste 6 Noroeste 0 -- -- 90
2020-06-19 02:00:00 9.9 0 Calma 3 Noroeste 0 -- -- 87
2020-06-19 01:00:00 10.5 0 Calma 8 Noroeste 0 -- -- 84
2020-06-19 00:00:00 11.6 4 Noroeste 15 Noroeste 0 -- -- 78
2020-06-18 23:00:00 13.3 6 Noroeste 18 Noroeste 0 -- -- 68
2020-06-18 22:00:00 15.2 6 Norte 19 Noroeste 0 -- -- 62
2020-06-18 21:00:00 17 9 Noroeste 21 Noroeste 0 -- -- 60
2020-06-18 20:00:00 19.8 9 Noroeste 23 Noroeste 0 -- -- 53
2020-06-18 19:00:00 19.5 8 Noroeste 19 Oeste 0 -- -- 54
2020-06-18 18:00:00 20.3 6 Noroeste 17 Noroeste 0 -- -- 50
2020-06-18 17:00:00 21.2 4 Noroeste 13 Norte 0 -- -- 48
2020-06-18 16:00:00 19.6 5 Noroeste 15 Nordeste 0 -- -- 51
2020-06-18 15:00:00 21 4 Oeste 13 Oeste 0 -- -- 46
2020-06-18 14:00:00 19.5 4 Sudoeste 13 Sudoeste 0 -- -- 52
2020-06-18 13:00:00 18.4 4 Noroeste 9 Oeste 0 -- -- 55
2020-06-18 12:00:00 16.2 4 Oeste 9 Oeste 0 -- -- 64
2020-06-18 11:00:00 14.9 3 Sudeste 6 Este 0 -- -- 76
2020-06-18 10:00:00 11 2 Sur 5 Sudeste 0 -- -- 93
2020-06-18 09:00:00 8.6 3 Noroeste 5 Sur 0 -- -- 95
2020-06-18 08:00:00 7.6 0 Calma 3 Sudeste 0 -- -- 96
2020-06-18 07:00:00 6.9 0 Calma 3 Noroeste 0 -- -- 95
2020-06-18 06:00:00 7.8 0 Calma 6 Noroeste 0 -- -- 95
2020-06-18 05:00:00 8.5 2 Noroeste 5 Noroeste 0 -- -- 94
2020-06-18 04:00:00 9.5 2 Noroeste 4 Noroeste 0 -- -- 93
2020-06-18 03:00:00 10.1 2 Noroeste 8 Noroeste 0 -- -- 92
2020-06-18 02:00:00 10.7 2 Norte 12 Noroeste 0 -- -- 90
2020-06-18 01:00:00 11.2 5 Noroeste 10 Noroeste 0 -- -- 88
2020-06-18 00:00:00 12.8 3 Noroeste 11 Noroeste 0 -- -- 79
2020-06-17 23:00:00 13.2 4 Noroeste 15 Noroeste 0 -- -- 78
2020-06-17 22:00:00 13.7 5 Noroeste 12 Norte 0 -- -- 78
2020-06-17 21:00:00 14.7 5 Noroeste 16 Norte 0 -- -- 73
2020-06-17 20:00:00 16 4 Norte 16 Norte 0 -- -- 68
2020-06-17 19:00:00 15 7 Norte 15 Noroeste 0 -- -- 75
2020-06-17 18:00:00 14.8 4 Noroeste 13 Noroeste 0 -- -- 73
2020-06-17 17:00:00 14.9 6 Noroeste 17 Norte 0 -- -- 73
2020-06-17 16:00:00 15.5 0 Calma 9 Oeste 0 -- -- 76
2020-06-17 15:00:00 15.8 4 Sur 9 Sudeste 0 -- -- 73
2020-06-17 14:00:00 16.7 2 Sudeste 8 Nordeste 0 -- -- 70
2020-06-17 13:00:00 15.3 3 Noroeste 9 Oeste 0.2 -- -- 78
2020-06-17 12:00:00 13.5 2 Sudeste 10 Sudeste 0 -- -- 83
2020-06-17 11:00:00 14.3 2 Noroeste 5 Norte 0 -- -- 76
2020-06-17 10:00:00 13 3 Noroeste 8 Noroeste 0 -- -- 86
2020-06-17 09:00:00 11.9 2 Oeste 5 Sudoeste 0 -- -- 92
2020-06-17 08:00:00 11.6 0 Calma 3 Noroeste 0 -- -- 93
2020-06-17 07:00:00 11.5 0 Calma 2 Sudeste 0 -- -- 93
2020-06-17 06:00:00 11.4 0 Calma 3 Oeste 0 -- -- 93
2020-06-17 05:00:00 11.5 0 Calma 3 Oeste 0 -- -- 93
2020-06-17 04:00:00 11.4 0 Calma 4 Oeste 0 -- -- 92
2020-06-17 03:00:00 11.8 0 Calma 8 Norte 0 -- -- 91
2020-06-17 02:00:00 12.2 3 Noroeste 10 Noroeste 0 -- -- 88
2020-06-17 01:00:00 12.5 4 Oeste 10 Oeste 0 -- -- 87
2020-06-17 00:00:00 12.9 5 Noroeste 14 Noroeste 0 -- -- 84
2020-06-16 23:00:00 13 4 Norte 14 Noroeste 0 -- -- 82
2020-06-16 22:00:00 13.5 4 Oeste 14 Noroeste 0 -- -- 79
2020-06-16 21:00:00 14.2 6 Noroeste 21 Noroeste 0 -- -- 76
2020-06-16 20:00:00 15 6 Noroeste 18 Noroeste 0 -- -- 74
2020-06-16 19:00:00 15.4 6 Noroeste 22 Sudoeste 0 -- -- 73
2020-06-16 18:00:00 15.8 8 Noroeste 17 Noroeste 0 -- -- 69
2020-06-16 17:00:00 15.8 7 Noroeste 25 Noroeste 0 -- -- 70
2020-06-16 16:00:00 16.1 8 Noroeste 21 Norte 0 -- -- 73
2020-06-16 15:00:00 16.5 9 Oeste 29 Oeste 0 -- -- 67
2020-06-16 14:00:00 16.8 9 Noroeste 27 Noroeste 0.2 -- -- 68
2020-06-16 13:00:00 15.4 7 Oeste 17 Noroeste 0 -- -- 75
2020-06-16 12:00:00 14.9 5 Noroeste 15 Noroeste 0 -- -- 76
2020-06-16 11:00:00 13.4 3 Oeste 12 Noroeste 0 -- -- 87
2020-06-16 10:00:00 12 4 Noroeste 18 Noroeste 0.2 -- -- 93
2020-06-16 09:00:00 12.2 3 Noroeste 15 Norte 0.8 -- -- 94
2020-06-16 08:00:00 12.2 0 Calma 5 Noroeste 0.6 -- -- 95
2020-06-16 07:00:00 12.1 2 Noroeste 5 Norte 0.6 -- -- 94
2020-06-16 06:00:00 12.4 0 Calma 9 Sudeste 0.6 -- -- 93
2020-06-16 05:00:00 12.6 3 Sudeste 9 Sur 0.6 -- -- 93
2020-06-16 04:00:00 12.8 0 Calma 11 Oeste 0.2 -- -- 92
2020-06-16 03:00:00 12.9 0 Calma 5 Sudeste 0 -- -- 91
2020-06-16 02:00:00 13 0 Calma 9 Sudoeste 0 -- -- 90
2020-06-16 01:00:00 13.3 3 Oeste 15 Oeste 0 -- -- 88
2020-06-16 00:00:00 14.2 4 Sudoeste 15 Oeste 0 -- -- 78
2020-06-15 23:00:00 14.4 5 Oeste 16 Oeste 0 -- -- 76
2020-06-15 22:00:00 15.1 7 Oeste 21 Oeste 0 -- -- 71
2020-06-15 21:00:00 15.9 7 Oeste 27 Oeste 0 -- -- 69
2020-06-15 20:00:00 16.6 16 Oeste 32 Oeste 0 -- -- 63
2020-06-15 19:00:00 17.3 13 Oeste 31 Sudoeste 0 -- -- 61
2020-06-15 18:00:00 17.6 15 Oeste 32 Oeste 0 -- -- 59
2020-06-15 17:00:00 18.7 11 Oeste 30 Oeste 0 -- -- 58
2020-06-15 16:00:00 18.7 9 Oeste 31 Oeste 0 -- -- 56
2020-06-15 15:00:00 18.2 6 Oeste 21 Oeste 0 -- -- 63
2020-06-15 14:00:00 16.8 6 Oeste 24 Oeste 0 -- -- 69
2020-06-15 13:00:00 17.3 6 Oeste 17 Oeste 0 -- -- 66
2020-06-15 12:00:00 15.5 6 Oeste 15 Sudoeste 0 -- -- 74
2020-06-15 11:00:00 15.3 6 Oeste 14 Oeste 0 -- -- 73
2020-06-15 10:00:00 14.1 7 Oeste 15 Oeste 0 -- -- 79
2020-06-15 09:00:00 12.9 8 Sudoeste 17 Oeste 0 -- -- 87
2020-06-15 08:00:00 11.6 0 Calma 7 Sur 0.4 -- -- 93
2020-06-15 07:00:00 11.2 2 Sudeste 5 Sudeste 0.2 -- -- 92
2020-06-15 06:00:00 11.4 0 Calma 4 Sur 0 -- -- 90
2020-06-15 05:00:00 11.2 2 Sudeste 4 Sudeste 0 -- -- 89
2020-06-15 04:00:00 11 0 Calma 4 Sudeste 0 -- -- 89
2020-06-15 03:00:00 11 0 Calma 4 Sur 0 -- -- 88
2020-06-15 02:00:00 10.4 0 Calma 4 Oeste 0 -- -- 88
2020-06-15 01:00:00 10.9 0 Calma 12 Oeste 0 -- -- 85
2020-06-15 00:00:00 12.3 6 Oeste 13 Oeste 0 -- -- 81
2020-06-14 23:00:00 13 7 Oeste 18 Oeste 0 -- -- 79
2020-06-14 22:00:00 14.1 4 Oeste 15 Oeste 0 -- -- 74
2020-06-14 21:00:00 15.1 6 Oeste 21 Noroeste 0 -- -- 70
2020-06-14 20:00:00 16.9 10 Oeste 26 Sudoeste 0 -- -- 65
2020-06-14 19:00:00 15.2 10 Oeste 27 Oeste 0 -- -- 73
2020-06-14 18:00:00 15 12 Oeste 29 Oeste 0 -- -- 73
2020-06-14 17:00:00 15 12 Oeste 32 Sudoeste 0 -- -- 74
2020-06-14 16:00:00 16.2 13 Oeste 28 Oeste 0 -- -- 69
2020-06-14 15:00:00 15.3 8 Oeste 20 Oeste 0 -- -- 73
2020-06-14 14:00:00 16.2 6 Sudoeste 23 Oeste 0 -- -- 71
2020-06-14 13:00:00 16.9 3 Sudoeste 19 Oeste 0 -- -- 70
2020-06-14 12:00:00 14.8 3 Sudoeste 21 Oeste 0 -- -- 76
2020-06-14 11:00:00 14.3 3 Sudoeste 17 Oeste 0 -- -- 80
2020-06-14 10:00:00 12.2 0 Calma 10 Sudeste 0 -- -- 87
2020-06-14 09:00:00 11.8 0 Calma 8 Sur 0 -- -- 89
2020-06-14 08:00:00 11.3 2 Sur 6 Sudeste 0 -- -- 91
2020-06-14 07:00:00 11 0 Calma 6 Oeste 0.2 -- -- 90
2020-06-14 06:00:00 11.3 0 Calma 9 Sudeste 0 -- -- 87
2020-06-14 05:00:00 11.5 3 Sudeste 6 Sudeste 0 -- -- 82
2020-06-14 04:00:00 11.5 3 Sudeste 8 Sur 0 -- -- 82
2020-06-14 03:00:00 11.6 0 Calma 8 Oeste 0 -- -- 83
2020-06-14 02:00:00 11.7 2 Sudoeste 9 Oeste 0 -- -- 83
2020-06-14 01:00:00 12 2 Sudoeste 9 Oeste 0 -- -- 82
2020-06-14 00:00:00 12.3 0 Calma 5 Oeste 0 -- -- 80
2020-06-13 23:00:00 12.7 3 Sudoeste 16 Oeste 0 -- -- 78
2020-06-13 22:00:00 13.5 5 Oeste 26 Sudoeste 0 -- -- 73
2020-06-13 21:00:00 14.1 11 Oeste 26 Oeste 0 -- -- 70
2020-06-13 20:00:00 15.1 11 Oeste 36 Oeste 0 -- -- 67
2020-06-13 19:00:00 15.2 14 Oeste 31 Sudoeste 0 -- -- 67
2020-06-13 18:00:00 16.3 13 Oeste 34 Oeste 0 -- -- 62
2020-06-13 17:00:00 15.7 18 Oeste 36 Sudoeste 0 -- -- 64
2020-06-13 16:00:00 15.6 15 Oeste 35 Oeste 0 -- -- 67
2020-06-13 15:00:00 15.4 12 Oeste 40 Oeste 0 -- -- 64
2020-06-13 14:00:00 15.8 5 Oeste 27 Oeste 0 -- -- 73
2020-06-13 13:00:00 14.5 13 Oeste 29 Oeste 0 -- -- 75
2020-06-13 12:00:00 14.2 7 Sudoeste 23 Oeste 0 -- -- 82
2020-06-13 11:00:00 12.1 6 Oeste 15 Oeste 0.4 -- -- 92
2020-06-13 10:00:00 11.5 0 Calma 7 Sudoeste 0.6 -- -- 93
2020-06-13 09:00:00 11 0 Calma 6 Sudeste 0 -- -- 92
2020-06-13 08:00:00 10.7 0 Calma 12 Oeste 0.2 -- -- 91
2020-06-13 07:00:00 10.9 3 Sudoeste 11 Oeste 0 -- -- 89
2020-06-13 06:00:00 10.9 3 Sudoeste 16 Oeste 0 -- -- 89
2020-06-13 05:00:00 10.9 2 Sudoeste 9 Oeste 0 -- -- 90
2020-06-13 04:00:00 11 4 Sudoeste 14 Oeste 0 -- -- 89
2020-06-13 03:00:00 10.8 4 Sudoeste 15 Oeste 0 -- -- 90
2020-06-13 02:00:00 10.5 6 Oeste 14 Oeste 0 -- -- 91
2020-06-13 01:00:00 10.7 3 Oeste 16 Oeste 0 -- -- 92
2020-06-13 00:00:00 10.9 5 Oeste 14 Oeste 1.4 -- -- 93
2020-06-12 23:00:00 11 5 Oeste 17 Norte 0.2 -- -- 93
2020-06-12 22:00:00 11.2 9 Oeste 23 Oeste 0.2 -- -- 92
2020-06-12 21:00:00 11.7 7 Oeste 22 Oeste 0.8 -- -- 92
2020-06-12 20:00:00 12.1 9 Oeste 20 Oeste 0.6 -- -- 90
2020-06-12 19:00:00 13.1 6 Noroeste 33 Sudoeste 0.6 -- -- 86
2020-06-12 18:00:00 15.9 13 Oeste 31 Oeste 0 -- -- 59
2020-06-12 17:00:00 17.1 10 Noroeste 29 Oeste 0 -- -- 55
2020-06-12 16:00:00 16.9 13 Noroeste 27 Oeste 0 -- -- 59
2020-06-12 15:00:00 16 9 Noroeste 27 Oeste 0 -- -- 69
2020-06-12 14:00:00 15.6 12 Oeste 25 Oeste 0 -- -- 73
2020-06-12 13:00:00 13.8 5 Oeste 19 Oeste 0.2 -- -- 83
2020-06-12 12:00:00 11.4 9 Oeste 26 Oeste 0.6 -- -- 92
2020-06-12 11:00:00 11.2 11 Oeste 22 Oeste 0 -- -- 91
2020-06-12 10:00:00 10.1 6 Oeste 18 Sudoeste 0.6 -- -- 93
2020-06-12 09:00:00 10 3 Sudoeste 14 Oeste 0 -- -- 90
2020-06-12 08:00:00 9.3 2 Sudoeste 8 Oeste 0 -- -- 93
2020-06-12 07:00:00 8.7 5 Oeste 10 Oeste 0 -- -- 94
2020-06-12 06:00:00 8.5 3 Oeste 8 Oeste 0 -- -- 94
2020-06-12 05:00:00 9.1 3 Noroeste 11 Oeste 0 -- -- 93
2020-06-12 04:00:00 9.6 3 Noroeste 22 Noroeste 0 -- -- 93
2020-06-12 03:00:00 10.2 8 Noroeste 25 Noroeste 1.2 -- -- 93
2020-06-12 02:00:00 10.5 12 Oeste 27 Oeste 1 -- -- 92
2020-06-12 01:00:00 10.6 12 Oeste 31 Oeste 1.2 -- -- 93
2020-06-12 00:00:00 10.2 17 Oeste 35 Oeste 1.4 -- -- 92
2020-06-11 23:00:00 10 16 Oeste 36 Oeste 0.2 -- -- 90
2020-06-11 22:00:00 9.9 12 Oeste 35 Sudoeste 0 -- -- 89
2020-06-11 21:00:00 11.1 13 Oeste 27 Oeste 0 -- -- 80
2020-06-11 20:00:00 11.9 10 Oeste 35 Oeste 0 -- -- 73
2020-06-11 19:00:00 13.1 6 Oeste 30 Oeste 0 -- -- 70
2020-06-11 18:00:00 13.4 12 Oeste 35 Noroeste 0.2 -- -- 69
2020-06-11 17:00:00 13.1 8 Noroeste 37 Oeste 0 -- -- 72
2020-06-11 16:00:00 12 13 Noroeste 33 Noroeste 0 -- -- 73
2020-06-11 15:00:00 15.8 12 Noroeste 28 Oeste 0 -- -- 57
2020-06-11 14:00:00 13.6 12 Noroeste 30 Noroeste 0 -- -- 68
2020-06-11 13:00:00 14 10 Noroeste 36 Noroeste 0 -- -- 70
2020-06-11 12:00:00 12.2 6 Noroeste 33 Noroeste 0.4 -- -- 85
2020-06-11 11:00:00 12.3 9 Noroeste 30 Noroeste 0.4 -- -- 89
2020-06-11 10:00:00 13.3 13 Oeste 24 Oeste 0 -- -- 85
2020-06-11 09:00:00 12.5 4 Oeste 14 Oeste 0 -- -- 92
2020-06-11 08:00:00 11.9 2 Oeste 6 Oeste 0 -- -- 92
2020-06-11 07:00:00 11.7 0 Calma 9 Oeste 0 -- -- 90
2020-06-11 06:00:00 11.7 5 Sudoeste 15 Oeste 0 -- -- 86
2020-06-11 05:00:00 11.8 3 Sudoeste 14 Sudoeste 0 -- -- 83
2020-06-11 04:00:00 12.1 0 Calma 7 Sudeste 0 -- -- 75
2020-06-11 03:00:00 12 3 Sudeste 7 Sudeste 0 -- -- 72
2020-06-11 02:00:00 11.4 0 Calma 6 Noroeste 0 -- -- 75
2020-06-11 01:00:00 11.3 3 Noroeste 8 Noroeste 0 -- -- 78
2020-06-11 00:00:00 12 3 Oeste 18 Noroeste 0 -- -- 77